Time;durP1;ratioP1;P1;durP2;ratioP2;P2;SDS_P1;SDS_P2;PMS_P1;PMS_P2;Temp;Humidity;BMP_temperature;BMP_pressure;BME280_temperature;BME280_humidity;BME280_pressure;Samples;Min_cycle;Max_cycle;Signal;HPM_P1;HPM_P2
2023/01/30 00:00:21;;;;;;;14.90;4.00;;;6.40;99.90;;;;;;5031738;28;20045;-81
2023/01/30 00:02:47;;;;;;;15.23;4.38;;;6.50;99.90;;;;;;5036181;28;20888;-82
2023/01/30 00:05:12;;;;;;;19.40;4.82;;;6.50;99.90;;;;;;5022832;28;20051;-82
2023/01/30 00:07:38;;;;;;;23.90;4.65;;;6.40;99.90;;;;;;5023588;28;20056;-82
2023/01/30 00:10:04;;;;;;;19.25;4.43;;;6.40;99.90;;;;;;5024059;28;20048;-82
2023/01/30 00:12:30;;;;;;;11.27;4.53;;;6.40;99.90;;;;;;5024735;28;20845;-82
2023/01/30 00:14:56;;;;;;;12.18;3.78;;;6.60;99.90;;;;;;5008248;28;20163;-82
2023/01/30 00:17:22;;;;;;;19.05;4.82;;;6.30;99.90;;;;;;5017563;28;20065;-81
2023/01/30 00:19:48;;;;;;;10.57;4.43;;;6.40;99.90;;;;;;5025676;28;20068;-82
2023/01/30 00:22:13;;;;;;;16.48;4.30;;;6.60;99.90;;;;;;5006558;28;20057;-81
2023/01/30 00:24:39;;;;;;;19.17;5.10;;;6.30;99.90;;;;;;5005630;28;20812;-82
2023/01/30 00:27:05;;;;;;;15.18;5.22;;;6.30;99.90;;;;;;5006734;28;20105;-82
2023/01/30 00:29:31;;;;;;;14.02;4.55;;;6.40;99.90;;;;;;5006801;28;20584;-82
2023/01/30 00:31:56;;;;;;;18.90;4.80;;;6.30;99.90;;;;;;5024189;28;20521;-82
2023/01/30 00:34:22;;;;;;;16.98;5.05;;;6.30;99.90;;;;;;5033826;28;20557;-81
2023/01/30 00:36:48;;;;;;;19.10;5.63;;;6.30;99.90;;;;;;5050127;28;20045;-82
2023/01/30 00:39:14;;;;;;;27.10;6.15;;;6.20;99.90;;;;;;5040646;28;20049;-82
2023/01/30 00:47:22;;;;;;;16.27;5.47;;;6.20;99.90;;;;;;5025010;28;20044;-82
2023/01/30 00:49:47;;;;;;;15.90;5.22;;;6.20;99.90;;;;;;5033008;28;20486;-82
2023/01/30 00:52:13;;;;;;;16.02;5.03;;;6.20;99.90;;;;;;5024015;28;20099;-82
2023/01/30 00:54:39;;;;;;;20.05;5.22;;;6.20;99.90;;;;;;5038996;28;20537;-81
2023/01/30 00:57:05;;;;;;;17.88;6.40;;;6.20;99.90;;;;;;5023949;28;20136;-82
2023/01/30 00:59:30;;;;;;;17.88;4.93;;;7.00;99.90;;;;;;5023965;28;20137;-82
2023/01/30 01:01:56;;;;;;;13.65;5.25;;;6.20;99.90;;;;;;5035160;28;20059;-82
2023/01/30 01:04:22;;;;;;;20.20;5.47;;;6.20;99.90;;;;;;5041076;28;20037;-82
2023/01/30 01:06:48;;;;;;;17.80;4.90;;;6.20;99.90;;;;;;5023943;28;20053;-82
2023/01/30 01:09:13;;;;;;;18.60;5.35;;;6.20;99.90;;;;;;5019801;28;20529;-82
2023/01/30 01:11:39;;;;;;;20.38;4.97;;;6.20;99.90;;;;;;5015597;28;20135;-82
2023/01/30 01:14:05;;;;;;;19.90;5.53;;;6.20;99.90;;;;;;5017901;28;20053;-82
2023/01/30 01:16:34;;;;;;;20.65;5.53;;;6.30;99.90;;;;;;5023695;28;20052;-80
2023/01/30 01:19:01;;;;;;;20.45;5.13;;;6.30;99.90;;;;;;5019346;28;20074;-81
2023/01/30 01:21:27;;;;;;;19.60;5.10;;;6.30;99.90;;;;;;5022952;28;20053;-82
2023/01/30 01:23:56;;;;;;;26.70;4.80;;;6.30;99.90;;;;;;5041595;28;20111;-81
2023/01/30 01:26:22;;;;;;;21.13;4.95;;;6.30;99.90;;;;;;5041748;28;20132;-81
2023/01/30 01:28:47;;;;;;;21.88;5.18;;;6.30;99.90;;;;;;5031583;28;20057;-82
2023/01/30 01:31:15;;;;;;;22.30;5.20;;;6.30;99.90;;;;;;5031407;28;20075;-82
2023/01/30 01:33:41;;;;;;;22.05;5.78;;;6.40;99.90;;;;;;5033187;28;20092;-82
2023/01/30 01:36:07;;;;;;;29.55;7.05;;;6.40;99.90;;;;;;5022073;28;20482;-82
2023/01/30 01:38:34;;;;;;;26.23;5.22;;;6.40;99.90;;;;;;5032555;28;20045;-82
2023/01/30 01:41:04;;;;;;;23.77;5.43;;;6.40;99.90;;;;;;5022199;28;20498;-81
2023/01/30 01:43:36;;;;;;;24.20;5.03;;;6.50;99.90;;;;;;5022953;28;20049;-82
2023/01/30 01:46:23;;;;;;;22.73;4.88;;;6.50;99.90;;;;;;5040147;28;20044;-82
2023/01/30 01:48:54;;;;;;;21.73;5.95;;;6.50;99.90;;;;;;5013378;28;20134;-82
2023/01/30 01:51:39;;;;;;;28.10;5.90;;;6.50;99.90;;;;;;5032054;28;20044;-82
2023/01/30 01:54:13;;;;;;;27.10;5.13;;;6.50;99.90;;;;;;5021764;28;20041;-82
2023/01/30 01:56:45;;;;;;;21.13;5.15;;;6.50;99.90;;;;;;5015165;28;20490;-82
2023/01/30 01:59:21;;;;;;;20.40;4.63;;;6.50;99.90;;;;;;5017317;28;20120;-81
2023/01/30 02:01:48;;;;;;;22.60;5.10;;;6.50;99.90;;;;;;5031874;28;20310;-81
2023/01/30 02:05:00;;;;;;;19.85;4.57;;;6.50;99.90;;;;;;4999969;28;20046;-82
2023/01/30 02:07:00;;;;;;;22.25;4.97;;;6.60;99.90;;;;;;5020073;28;20041;-82
2023/01/30 02:09:25;;;;;;;28.52;5.55;;;6.60;99.90;;;;;;5033296;28;20072;-82
2023/01/30 02:11:55;;;;;;;19.95;4.47;;;6.60;99.90;;;;;;5008006;28;20132;-81
2023/01/30 02:14:22;;;;;;;21.42;4.95;;;6.60;99.90;;;;;;5026079;28;20614;-81
2023/01/30 02:16:47;;;;;;;30.50;5.43;;;6.60;99.90;;;;;;5038421;28;20083;-82
2023/01/30 02:19:48;;;;;;;32.45;5.47;;;6.60;99.90;;;;;;5036608;28;20545;-82
2023/01/30 02:22:30;;;;;;;23.42;5.28;;;6.60;99.90;;;;;;5027686;28;20086;-82
2023/01/30 02:25:17;;;;;;;25.27;5.22;;;6.60;99.90;;;;;;5033375;28;20044;-82
2023/01/30 02:28:04;;;;;;;18.58;4.93;;;6.70;99.90;;;;;;5036433;28;20052;-83
2023/01/30 02:31:15;;;;;;;19.50;4.53;;;6.70;99.90;;;;;;5042810;28;20138;-82
2023/01/30 02:34:03;;;;;;;22.55;5.15;;;6.60;99.90;;;;;;5024089;28;20052;-82
2023/01/30 02:36:55;;;;;;;27.10;5.65;;;6.60;99.90;;;;;;5037135;28;20474;-82
2023/01/30 02:39:36;;;;;;;22.30;5.32;;;6.60;99.90;;;;;;5024247;28;20072;-82
2023/01/30 02:42:27;;;;;;;27.65;5.85;;;6.60;99.90;;;;;;5041113;28;20045;-82
2023/01/30 02:45:15;;;;;;;23.60;5.20;;;6.50;99.90;;;;;;5036578;28;20490;-82
2023/01/30 02:48:10;;;;;;;17.95;4.72;;;6.50;99.90;;;;;;5021609;28;20041;-81
2023/01/30 02:50:44;;;;;;;14.05;4.47;;;6.50;99.90;;;;;;5018847;28;20057;-82
2023/01/30 02:53:11;;;;;;;21.90;4.75;;;6.50;99.90;;;;;;5025698;28;20052;-81
2023/01/30 02:55:39;;;;;;;22.90;5.60;;;6.50;99.90;;;;;;5023110;28;20057;-82
2023/01/30 02:58:05;;;;;;;18.30;4.05;;;6.40;99.90;;;;;;5010453;28;20073;-82
2023/01/30 03:00:43;;;;;;;17.35;4.32;;;6.40;99.90;;;;;;5006716;28;20585;-82
2023/01/30 03:03:46;;;;;;;24.17;5.10;;;6.40;99.90;;;;;;5052319;28;20041;-82
2023/01/30 03:06:12;;;;;;;21.65;4.90;;;6.40;99.90;;;;;;5036236;28;20068;-82
2023/01/30 03:09:02;;;;;;;25.10;4.80;;;6.50;99.90;;;;;;5038759;28;20044;-81
2023/01/30 03:11:43;;;;;;;20.33;4.50;;;6.50;99.90;;;;;;5036906;28;20052;-82
2023/01/30 03:14:31;;;;;;;23.83;4.72;;;6.50;99.90;;;;;;5019841;28;20049;-82
2023/01/30 03:17:00;;;;;;;24.10;4.40;;;6.40;99.90;;;;;;5023521;28;20048;-82
2023/01/30 03:19:28;;;;;;;17.42;4.28;;;6.40;99.90;;;;;;5035154;28;20504;-82
2023/01/30 03:21:54;;;;;;;18.80;4.65;;;6.40;99.90;;;;;;5033042;28;20049;-82
2023/01/30 03:24:20;;;;;;;18.10;3.83;;;6.50;99.90;;;;;;5035131;28;20049;-82
2023/01/30 03:26:53;;;;;;;20.80;4.43;;;6.40;99.90;;;;;;5007186;28;20041;-82
2023/01/30 03:29:19;;;;;;;20.77;5.25;;;6.50;99.90;;;;;;5025215;28;20053;-82
2023/01/30 03:31:44;;;;;;;18.73;4.00;;;6.50;99.90;;;;;;5037647;28;20047;-82
2023/01/30 03:34:10;;;;;;;21.92;4.80;;;6.60;99.90;;;;;;5009175;28;20071;-82
2023/01/30 03:36:36;;;;;;;22.30;4.65;;;6.00;99.90;;;;;;4986458;28;20061;-82
2023/01/30 03:39:02;;;;;;;17.00;4.38;;;6.60;99.90;;;;;;5041375;28;20056;-81
2023/01/30 03:41:28;;;;;;;22.63;4.57;;;6.60;99.90;;;;;;5025167;28;20041;-82
2023/01/30 03:43:54;;;;;;;20.50;5.05;;;6.60;99.90;;;;;;5024768;28;20132;-82
2023/01/30 03:46:20;;;;;;;18.33;4.57;;;6.50;99.90;;;;;;5025646;28;20055;-82
2023/01/30 03:48:46;;;;;;;18.98;4.47;;;6.50;99.90;;;;;;5039418;28;20154;-82
2023/01/30 03:51:11;;;;;;;18.70;3.75;;;6.40;99.90;;;;;;5032213;28;20055;-82
2023/01/30 03:53:37;;;;;;;16.92;4.10;;;6.40;99.90;;;;;;5007902;28;20499;-82
2023/01/30 03:56:03;;;;;;;20.38;4.40;;;6.30;99.90;;;;;;5019719;28;20180;-82
2023/01/30 03:58:29;;;;;;;18.33;3.60;;;6.30;99.90;;;;;;5026326;28;20079;-82
2023/01/30 04:00:56;;;;;;;20.25;4.30;;;6.50;99.90;;;;;;5016688;28;20045;-82
2023/01/30 04:03:23;;;;;;;16.65;3.15;;;6.30;99.90;;;;;;5040903;28;20651;-82
2023/01/30 04:05:48;;;;;;;25.90;4.10;;;6.30;99.90;;;;;;5024174;28;20529;-81
2023/01/30 04:08:14;;;;;;;15.55;3.30;;;6.50;99.90;;;;;;5024139;28;20045;-83
2023/01/30 04:10:40;;;;;;;22.13;3.50;;;6.30;99.90;;;;;;5016492;28;20823;-83
2023/01/30 04:13:06;;;;;;;20.90;3.60;;;6.40;99.90;;;;;;5003107;28;20063;-81
2023/01/30 04:15:32;;;;;;;15.98;3.65;;;6.30;99.90;;;;;;5024702;28;20144;-81
2023/01/30 04:17:58;;;;;;;24.65;4.20;;;6.20;99.90;;;;;;5023892;28;20126;-80
2023/01/30 04:20:23;;;;;;;22.52;3.75;;;6.30;99.90;;;;;;5016172;28;20068;-81
2023/01/30 04:22:49;;;;;;;16.23;3.58;;;6.20;99.90;;;;;;5032195;28;20152;-81
2023/01/30 04:25:15;;;;;;;26.58;5.05;;;6.20;99.90;;;;;;5021869;28;20055;-82
2023/01/30 04:27:42;;;;;;;24.25;3.95;;;6.30;99.90;;;;;;5020507;28;20089;-81
2023/01/30 04:30:08;;;;;;;18.85;4.82;;;6.20;99.90;;;;;;5035305;28;20143;-81
2023/01/30 04:32:34;;;;;;;20.00;4.05;;;6.20;99.90;;;;;;5024177;28;20048;-81
2023/01/30 04:35:00;;;;;;;18.75;4.07;;;5.10;99.90;;;;;;5032677;28;20106;-82
2023/01/30 04:37:25;;;;;;;27.50;4.60;;;6.30;99.90;;;;;;5024468;28;20053;-82
2023/01/30 04:39:51;;;;;;;16.45;3.50;;;6.20;99.90;;;;;;5039745;28;20049;-82
2023/01/30 04:42:17;;;;;;;19.45;3.90;;;8.20;99.90;;;;;;5017572;28;20049;-81
2023/01/30 04:44:43;;;;;;;21.40;4.85;;;6.30;99.90;;;;;;5051308;28;20093;-81
2023/01/30 04:47:08;;;;;;;28.25;4.38;;;6.20;99.90;;;;;;5020386;28;20063;-81
2023/01/30 04:49:34;;;;;;;24.52;4.22;;;6.20;99.90;;;;;;5022527;28;20063;-82
2023/01/30 04:52:00;;;;;;;17.73;4.03;;;6.30;99.90;;;;;;5022162;28;20044;-82
2023/01/30 04:54:26;;;;;;;23.88;3.78;;;6.30;99.90;;;;;;5040117;28;20546;-82
2023/01/30 04:56:51;;;;;;;19.00;3.80;;;6.20;99.90;;;;;;5017559;28;20067;-82
2023/01/30 04:59:17;;;;;;;16.60;3.70;;;6.10;99.90;;;;;;5023130;28;20053;-81
2023/01/30 05:01:43;;;;;;;24.55;3.33;;;6.10;99.90;;;;;;5001828;28;20051;-82
2023/01/30 05:04:09;;;;;;;22.33;4.13;;;5.30;99.90;;;;;;5034732;28;20049;-81
2023/01/30 05:06:35;;;;;;;25.23;3.67;;;6.00;99.90;;;;;;5024538;28;20049;-81
2023/01/30 05:09:02;;;;;;;22.90;3.80;;;6.00;99.90;;;;;;5017246;28;20159;-81
2023/01/30 05:11:29;;;;;;;22.50;4.00;;;6.00;99.90;;;;;;5023077;28;20060;-83
2023/01/30 05:13:55;;;;;;;16.10;3.15;;;6.00;99.90;;;;;;5017014;28;20080;-81
2023/01/30 05:16:21;;;;;;;24.98;3.83;;;6.10;99.90;;;;;;5020887;28;20612;-82
2023/01/30 05:18:48;;;;;;;22.80;3.72;;;7.80;99.90;;;;;;4999858;28;20045;-82
2023/01/30 05:21:26;;;;;;;14.68;3.20;;;5.90;99.90;;;;;;5000811;28;20072;-82
2023/01/30 05:23:53;;;;;;;16.38;4.07;;;6.10;99.90;;;;;;5018654;28;20513;-82
2023/01/30 05:26:19;;;;;;;20.95;3.70;;;6.30;99.90;;;;;;5020836;28;20925;-81
2023/01/30 05:28:51;;;;;;;19.05;4.05;;;6.10;99.90;;;;;;5030801;28;20088;-82
2023/01/30 05:31:17;;;;;;;17.80;3.55;;;6.70;99.90;;;;;;5021360;28;20250;-81
2023/01/30 05:33:47;;;;;;;27.08;4.03;;;6.20;99.90;;;;;;5036549;28;20507;-81
2023/01/30 05:36:16;;;;;;;25.33;4.10;;;6.00;99.90;;;;;;5036519;28;20041;-81
2023/01/30 05:38:43;;;;;;;22.60;3.70;;;6.10;99.90;;;;;;5021314;28;20051;-82
2023/01/30 05:41:10;;;;;;;16.75;3.50;;;5.90;99.90;;;;;;5034599;28;20045;-81
2023/01/30 05:43:36;;;;;;;21.02;3.72;;;6.10;99.90;;;;;;5035060;28;20048;-81
2023/01/30 05:46:05;;;;;;;22.05;4.35;;;6.00;99.90;;;;;;5034160;28;20049;-81
2023/01/30 05:48:32;;;;;;;17.08;4.05;;;5.90;99.90;;;;;;5034176;28;20127;-81
2023/01/30 05:50:59;;;;;;;22.35;4.00;;;5.90;99.90;;;;;;5036408;28;20406;-81
2023/01/30 05:53:28;;;;;;;18.48;3.53;;;5.90;99.90;;;;;;5039551;28;20043;-81
2023/01/30 05:56:04;;;;;;;17.23;3.60;;;5.90;99.90;;;;;;5037408;28;20052;-84
2023/01/30 05:58:31;;;;;;;16.45;3.22;;;5.90;99.90;;;;;;5034066;28;20049;-81
2023/01/30 06:01:05;;;;;;;18.67;4.28;;;5.90;99.90;;;;;;5049006;28;20087;-80
2023/01/30 06:03:31;;;;;;;20.98;3.97;;;5.90;99.90;;;;;;5005892;28;20462;-81
2023/01/30 06:05:57;;;;;;;21.48;3.70;;;6.00;99.90;;;;;;5004279;28;20033;-81
2023/01/30 06:08:23;;;;;;;28.00;4.50;;;6.00;99.90;;;;;;5022112;28;20664;-81
2023/01/30 06:10:49;;;;;;;24.13;4.53;;;6.00;99.90;;;;;;5031966;28;20605;-81
2023/01/30 06:13:15;;;;;;;21.17;4.28;;;6.00;99.90;;;;;;5032696;28;20083;-81
2023/01/30 06:15:41;;;;;;;35.47;5.32;;;5.90;99.90;;;;;;5017279;28;20049;-81
2023/01/30 06:18:07;;;;;;;20.67;3.53;;;6.00;99.90;;;;;;5048746;28;20045;-81
2023/01/30 06:20:32;;;;;;;23.05;5.28;;;6.00;99.90;;;;;;5021754;28;20049;-82
2023/01/30 06:22:58;;;;;;;24.75;4.68;;;5.90;99.90;;;;;;5017159;28;20052;-81
2023/01/30 06:25:24;;;;;;;21.42;4.25;;;5.90;99.90;;;;;;5014783;28;20135;-82
2023/01/30 06:27:50;;;;;;;28.48;4.63;;;5.90;99.90;;;;;;5031802;28;20559;-82
2023/01/30 06:30:16;;;;;;;26.60;4.78;;;6.20;99.90;;;;;;5023534;28;20520;-81
2023/01/30 06:32:41;;;;;;;20.98;3.90;;;5.90;99.90;;;;;;5022681;28;20390;-82
2023/01/30 06:35:08;;;;;;;23.65;4.55;;;6.10;99.90;;;;;;5016795;28;20049;-82
2023/01/30 06:37:36;;;;;;;21.13;3.60;;;6.10;99.90;;;;;;5035471;28;20132;-82
2023/01/30 06:40:02;;;;;;;19.10;3.95;;;;;;;;;;5033138;28;20469;-82
2023/01/30 06:42:28;;;;;;;27.88;4.57;;;6.00;99.90;;;;;;5034527;28;20041;-83
2023/01/30 06:44:54;;;;;;;19.00;4.25;;;5.90;99.90;;;;;;5024532;28;20096;-83
2023/01/30 06:47:19;;;;;;;20.27;4.70;;;5.90;99.90;;;;;;5024850;28;20057;-82
2023/01/30 06:49:47;;;;;;;24.70;5.35;;;6.20;99.90;;;;;;5021354;28;20045;-82
2023/01/30 06:52:13;;;;;;;15.77;3.40;;;6.00;99.90;;;;;;5019028;28;20071;-81
2023/01/30 06:54:39;;;;;;;18.70;3.97;;;5.90;99.90;;;;;;5015868;28;20081;-81
2023/01/30 06:57:05;;;;;;;22.33;4.32;;;6.10;99.90;;;;;;5018751;28;20036;-81
2023/01/30 06:59:30;;;;;;;27.50;6.63;;;6.00;99.90;;;;;;5051753;28;20544;-79
2023/01/30 07:01:56;;;;;;;23.42;4.18;;;6.20;99.90;;;;;;5026132;28;20049;-80
2023/01/30 07:04:22;;;;;;;25.70;4.25;;;6.00;99.90;;;;;;5026371;28;20120;-81
2023/01/30 07:06:48;;;;;;;31.42;5.03;;;4.60;99.90;;;;;;5036024;28;20486;-85
2023/01/30 07:09:14;;;;;;;31.17;4.82;;;6.10;99.90;;;;;;5036859;28;20124;-82
2023/01/30 07:11:40;;;;;;;23.38;3.97;;;6.00;99.90;;;;;;5024160;28;20163;-82
2023/01/30 07:14:06;;;;;;;24.88;4.20;;;6.00;99.90;;;;;;5036327;28;20485;-82
2023/01/30 07:16:31;;;;;;;23.05;5.07;;;5.90;99.90;;;;;;5021631;28;20510;-82
2023/01/30 07:18:59;;;;;;;20.75;4.10;;;5.90;99.90;;;;;;5035005;28;20041;-82
2023/01/30 07:21:26;;;;;;;23.38;4.30;;;6.00;99.90;;;;;;5008793;28;20045;-82
2023/01/30 07:23:52;;;;;;;22.10;4.65;;;5.80;99.90;;;;;;5024011;28;20045;-82
2023/01/30 07:26:17;;;;;;;20.90;4.07;;;5.90;99.90;;;;;;5006958;28;20059;-84
2023/01/30 07:28:43;;;;;;;23.58;5.15;;;6.00;99.90;;;;;;5041510;28;20049;-86
2023/01/30 07:31:09;;;;;;;24.52;4.75;;;6.00;99.90;;;;;;5043273;28;20062;-84
2023/01/30 07:33:35;;;;;;;25.75;4.80;;;6.10;99.90;;;;;;4993155;28;20578;-85
2023/01/30 07:36:01;;;;;;;22.55;4.43;;;6.00;99.90;;;;;;5041053;28;20554;-84
2023/01/30 07:38:28;;;;;;;19.52;4.10;;;6.20;99.90;;;;;;5043036;28;20090;-87
2023/01/30 07:40:58;;;;;;;18.52;4.28;;;6.20;99.90;;;;;;5058121;28;20122;-86
2023/01/30 07:43:24;;;;;;;24.00;4.30;;;6.00;99.90;;;;;;5058534;28;20471;-86
2023/01/30 07:45:53;;;;;;;25.02;4.65;;;6.00;99.90;;;;;;5021173;28;20053;-85
2023/01/30 07:48:19;;;;;;;24.77;4.95;;;;;;;;;;5028124;28;20079;-86
2023/01/30 07:50:45;;;;;;;29.90;5.10;;;6.00;99.90;;;;;;5040874;28;20051;-83
2023/01/30 07:53:14;;;;;;;31.20;5.40;;;6.10;99.90;;;;;;5033842;28;20049;-84
2023/01/30 07:55:40;;;;;;;21.15;5.07;;;4.90;99.90;;;;;;5034429;28;20055;-83
2023/01/30 07:58:06;;;;;;;27.48;6.15;;;6.10;99.90;;;;;;5036779;28;20037;-83
2023/01/30 08:00:33;;;;;;;24.77;6.05;;;6.10;99.90;;;;;;5020116;28;20052;-84
2023/01/30 08:03:01;;;;;;;22.10;4.57;;;6.00;99.90;;;;;;5024811;28;20608;-83
2023/01/30 08:05:27;;;;;;;27.15;4.57;;;6.00;99.90;;;;;;5033680;28;20044;-83
2023/01/30 08:07:55;;;;;;;20.98;4.35;;;6.00;99.90;;;;;;5037611;28;20057;-84
2023/01/30 08:10:21;;;;;;;27.83;4.57;;;6.00;99.90;;;;;;5041453;28;20230;-84
2023/01/30 08:12:50;;;;;;;16.63;3.88;;;6.20;99.90;;;;;;5020015;28;20059;-83
2023/01/30 08:15:16;;;;;;;26.17;4.93;;;6.20;99.90;;;;;;5044687;28;20052;-83
2023/01/30 08:17:41;;;;;;;27.38;4.60;;;6.00;99.90;;;;;;5022025;28;20057;-83
2023/01/30 08:20:08;;;;;;;22.25;4.60;;;6.10;99.90;;;;;;5007870;28;20048;-85
2023/01/30 08:22:34;;;;;;;22.95;4.50;;;6.10;99.90;;;;;;5036200;28;20049;-83
2023/01/30 08:25:00;;;;;;;22.75;4.03;;;6.20;99.90;;;;;;5019768;28;20048;-86
2023/01/30 08:27:25;;;;;;;24.70;4.55;;;6.50;99.90;;;;;;5020523;28;20486;-84
2023/01/30 08:29:53;;;;;;;27.88;4.93;;;6.40;99.90;;;;;;5021258;28;20066;-86
2023/01/30 08:32:18;;;;;;;24.02;4.40;;;6.30;99.90;;;;;;5019293;28;20037;-88
2023/01/30 08:34:45;;;;;;;25.23;4.85;;;6.60;99.90;;;;;;5006348;28;20040;-85
2023/01/30 08:37:10;;;;;;;22.55;4.45;;;6.30;99.90;;;;;;5018836;28;20049;-83
2023/01/30 08:39:36;;;;;;;30.52;5.07;;;6.40;99.90;;;;;;5029791;28;20091;-84
2023/01/30 08:42:02;;;;;;;28.00;5.20;;;6.40;99.90;;;;;;5007745;28;20044;-85
2023/01/30 08:44:28;;;;;;;26.45;4.70;;;6.40;99.90;;;;;;5039772;28;20479;-87
2023/01/30 08:46:54;;;;;;;21.95;5.20;;;6.80;99.90;;;;;;5033152;28;20507;-86
2023/01/30 08:49:19;;;;;;;20.83;4.25;;;6.60;99.90;;;;;;5021764;28;20123;-86
2023/01/30 08:51:48;;;;;;;27.58;5.35;;;6.60;99.90;;;;;;5025988;28;20589;-88
2023/01/30 08:54:14;;;;;;;25.15;4.43;;;6.70;99.90;;;;;;5044437;28;20041;-87
2023/01/30 08:56:40;;;;;;;26.90;5.25;;;6.80;99.90;;;;;;5031816;28;20049;-86
2023/01/30 08:59:12;;;;;;;33.17;5.35;;;7.00;99.90;;;;;;5028623;28;20475;-85
2023/01/30 09:01:38;;;;;;;26.13;5.28;;;7.30;99.90;;;;;;5038885;28;20077;-83
2023/01/30 09:04:04;;;;;;;26.58;5.45;;;7.40;99.90;;;;;;5024252;28;20049;-83
2023/01/30 09:06:30;;;;;;;31.90;5.57;;;7.60;99.90;;;;;;5034843;28;20045;-85
2023/01/30 09:08:55;;;;;;;28.38;5.70;;;7.20;99.90;;;;;;5021328;28;20049;-83
2023/01/30 09:11:21;;;;;;;23.75;4.95;;;7.20;99.90;;;;;;5027324;28;20475;-83
2023/01/30 09:13:47;;;;;;;24.98;4.97;;;7.10;99.90;;;;;;5019236;28;20824;-82
2023/01/30 09:16:13;;;;;;;20.30;5.28;;;7.00;99.90;;;;;;5024197;28;20049;-82
2023/01/30 09:18:43;;;;;;;24.83;4.18;;;6.90;99.90;;;;;;5035380;28;20751;-83
2023/01/30 09:21:12;;;;;;;27.73;4.38;;;7.10;99.90;;;;;;5021116;28;20042;-84
2023/01/30 09:23:38;;;;;;;25.08;5.20;;;7.10;99.90;;;;;;5035232;28;20049;-84
2023/01/30 09:26:05;;;;;;;26.92;4.78;;;7.10;99.90;;;;;;5007953;28;20505;-83
2023/01/30 09:28:32;;;;;;;24.77;4.80;;;6.90;99.90;;;;;;5032836;28;20061;-83
2023/01/30 09:30:59;;;;;;;28.92;4.65;;;7.00;99.90;;;;;;5035061;28;20050;-83
2023/01/30 09:33:25;;;;;;;22.40;4.72;;;;;;;;;;5035241;28;20045;-82
2023/01/30 09:35:51;;;;;;;18.67;4.15;;;6.90;99.90;;;;;;5035729;28;20053;-83
2023/01/30 09:38:17;;;;;;;20.55;4.75;;;6.90;99.90;;;;;;5051204;28;20551;-86
2023/01/30 09:41:15;;;;;;;18.85;4.65;;;7.00;99.90;;;;;;5033968;28;20502;-80
2023/01/30 09:44:02;;;;;;;26.30;5.07;;;7.20;99.90;;;;;;5025245;28;20072;-82
2023/01/30 09:46:34;;;;;;;23.23;4.13;;;7.40;99.90;;;;;;5033700;28;20132;-82
2023/01/30 09:49:03;;;;;;;29.92;4.97;;;7.50;99.90;;;;;;5050911;28;20052;-84
2023/01/30 09:51:41;;;;;;;21.80;4.38;;;7.60;99.90;;;;;;5022733;28;20056;-87
2023/01/30 09:54:15;;;;;;;23.75;4.60;;;7.70;99.90;;;;;;5027330;28;20049;-84
2023/01/30 09:56:41;;;;;;;25.90;5.25;;;7.60;99.90;;;;;;5034796;28;20462;-85
2023/01/30 09:59:21;;;;;;;28.67;4.97;;;7.60;99.90;;;;;;5018558;28;20045;-81
2023/01/30 10:02:04;;;;;;;30.05;5.65;;;7.60;99.90;;;;;;5013478;28;20048;-83
2023/01/30 10:04:45;;;;;;;24.00;4.55;;;7.50;99.90;;;;;;5024954;28;20407;-86
2023/01/30 10:07:32;;;;;;;26.20;4.47;;;7.60;99.90;;;;;;5035980;28;20045;-84
2023/01/30 10:10:09;;;;;;;21.88;4.88;;;8.00;99.90;;;;;;5036107;28;20056;-85
2023/01/30 10:13:09;;;;;;;24.75;4.50;;;7.90;99.90;;;;;;5042362;28;20071;-86
2023/01/30 10:15:48;;;;;;;28.20;5.10;;;8.00;99.90;;;;;;5021141;28;20049;-85
2023/01/30 10:18:52;;;;;;;23.02;4.60;;;6.90;99.90;;;;;;5019262;28;20057;-85
2023/01/30 10:21:42;;;;;;;21.65;4.45;;;9.50;99.90;;;;;;5025352;28;20087;-84
2023/01/30 10:24:28;;;;;;;22.73;5.30;;;9.20;99.90;;;;;;5017981;28;20128;-84
2023/01/30 10:27:16;;;;;;;22.60;4.78;;;9.00;99.90;;;;;;5037441;28;20133;-88
2023/01/30 10:29:52;;;;;;;22.58;4.38;;;8.40;99.90;;;;;;5024658;28;20073;-87
2023/01/30 10:33:12;;;;;;;19.35;4.15;;;9.60;99.90;;;;;;5024287;28;20049;-86
2023/01/30 10:35:45;;;;;;;23.92;5.05;;;9.40;99.90;;;;;;5042121;28;20518;-87
2023/01/30 10:38:46;;;;;;;26.58;5.00;;;9.70;99.90;;;;;;5041221;28;20045;-88
2023/01/30 10:41:31;;;;;;;27.58;4.75;;;9.40;99.90;;;;;;5024577;28;20131;-87
2023/01/30 10:44:20;;;;;;;23.75;5.03;;;9.60;99.90;;;;;;5048428;28;20045;-86
2023/01/30 10:47:19;;;;;;;27.10;4.85;;;9.50;99.90;;;;;;5046295;28;20139;-85
2023/01/30 10:50:11;;;;;;;17.23;4.78;;;9.10;99.90;;;;;;5004474;28;20065;-83
2023/01/30 10:52:40;;;;;;;19.48;5.15;;;9.00;99.90;;;;;;5037848;28;20045;-84
2023/01/30 10:55:14;;;;;;;21.02;5.97;;;7.20;99.90;;;;;;5046345;28;20045;-87
2023/01/30 10:57:49;;;;;;;23.35;4.53;;;9.60;99.90;;;;;;5026437;28;20068;-83
2023/01/30 11:00:59;;;;;;;20.65;4.28;;;8.70;99.90;;;;;;5067683;28;20060;-82
2023/01/30 11:03:44;;;;;;;22.17;4.97;;;8.90;99.90;;;;;;5038779;28;20049;-83
2023/01/30 11:06:25;;;;;;;24.83;4.40;;;9.10;99.90;;;;;;5025394;28;20049;-82
2023/01/30 11:08:53;;;;;;;17.67;3.95;;;9.00;99.90;;;;;;5026429;28;20143;-86
2023/01/30 11:11:50;;;;;;;19.45;4.60;;;8.90;99.90;;;;;;5025800;28;20045;-85
2023/01/30 11:14:16;;;;;;;25.17;5.47;;;9.30;99.90;;;;;;5025709;28;20056;-85
2023/01/30 11:16:52;;;;;;;17.17;4.07;;;9.60;99.90;;;;;;5010146;28;20041;-84
2023/01/30 11:19:22;;;;;;;25.02;5.57;;;9.60;99.90;;;;;;5020361;28;20060;-84
2023/01/30 11:21:53;;;;;;;24.90;4.53;;;9.40;99.90;;;;;;5039726;28;20048;-88
2023/01/30 11:24:28;;;;;;;21.75;4.30;;;9.10;99.90;;;;;;5037991;28;20084;-84
2023/01/30 11:26:55;;;;;;;20.20;4.65;;;8.80;99.90;;;;;;5024356;28;20050;-79
2023/01/30 11:29:28;;;;;;;18.23;4.85;;;7.00;99.90;;;;;;5021080;28;20132;-82
2023/01/30 11:31:55;;;;;;;15.93;3.72;;;8.50;99.90;;;;;;5054248;28;20051;-81
2023/01/30 11:34:23;;;;;;;26.55;3.90;;;8.60;99.90;;;;;;5036751;28;20063;-82
2023/01/30 11:36:49;;;;;;;23.15;5.68;;;8.50;99.90;;;;;;5035141;28;20072;-83
2023/01/30 11:39:17;;;;;;;16.55;4.53;;;8.20;99.90;;;;;;4982670;28;20486;-83
2023/01/30 11:42:00;;;;;;;20.13;4.22;;;8.10;99.90;;;;;;5032604;28;20609;-84
2023/01/30 11:44:27;;;;;;;10.98;1.77;;;8.00;99.90;;;;;;5017372;28;20612;-82
2023/01/30 11:46:57;;;;;;;10.88;1.95;;;7.10;99.90;;;;;;5039669;28;20398;-82
2023/01/30 11:49:37;;;;;;;8.88;1.70;;;6.80;99.90;;;;;;5032054;28;20049;-82
2023/01/30 11:52:04;;;;;;;13.57;3.10;;;6.50;99.90;;;;;;5042520;28;20125;-80
2023/01/30 11:54:37;;;;;;;15.52;2.97;;;6.30;99.90;;;;;;5040497;28;20053;-83
2023/01/30 11:57:08;;;;;;;17.80;4.13;;;6.20;99.90;;;;;;5035542;28;20402;-82
2023/01/30 11:59:46;;;;;;;22.10;4.13;;;6.20;99.90;;;;;;5025413;28;20049;-83
2023/01/30 12:02:33;;;;;;;23.67;4.00;;;5.80;99.90;;;;;;5041807;28;20611;-83
2023/01/30 12:05:03;;;;;;;16.02;3.42;;;6.40;99.90;;;;;;5036585;28;20504;-82
2023/01/30 12:07:36;;;;;;;20.23;4.10;;;6.60;99.90;;;;;;5037345;28;20186;-83
2023/01/30 12:10:22;;;;;;;25.45;4.75;;;6.50;99.90;;;;;;5008506;28;20549;-83
2023/01/30 12:12:52;;;;;;;25.70;4.88;;;6.50;99.90;;;;;;5038853;28;20059;-83
2023/01/30 12:15:33;;;;;;;23.40;4.60;;;6.70;99.90;;;;;;5054991;28;20052;-82
2023/01/30 12:18:04;;;;;;;26.48;4.40;;;6.60;99.90;;;;;;5026493;28;20126;-83
2023/01/30 12:20:58;;;;;;;18.02;4.57;;;6.60;99.90;;;;;;5051985;28;20045;-82
2023/01/30 12:23:45;;;;;;;23.08;4.43;;;5.40;99.90;;;;;;5043556;28;20076;-84
2023/01/30 12:26:32;;;;;;;21.95;4.28;;;6.70;99.90;;;;;;5026977;28;20081;-83
2023/01/30 12:29:23;;;;;;;28.00;4.35;;;6.80;99.90;;;;;;5041209;28;20091;-83
2023/01/30 12:32:01;;;;;;;25.77;4.97;;;6.80;99.90;;;;;;5042111;28;20136;-83
2023/01/30 12:34:27;;;;;;;28.17;4.85;;;7.70;99.90;;;;;;5043799;28;20045;-82
2023/01/30 12:37:10;;;;;;;27.48;5.35;;;6.90;99.90;;;;;;5027065;28;20075;-83
2023/01/30 12:40:02;;;;;;;19.38;4.15;;;7.00;99.90;;;;;;5027092;28;20061;-83
2023/01/30 12:42:49;;;;;;;31.27;5.32;;;7.00;99.90;;;;;;5042662;28;20045;-82
2023/01/30 12:45:45;;;;;;;25.75;5.15;;;7.10;99.90;;;;;;5053146;28;20091;-83
2023/01/30 12:48:29;;;;;;;31.48;5.80;;;7.20;99.90;;;;;;5034793;28;20175;-83
2023/01/30 12:51:19;;;;;;;33.60;5.30;;;7.20;99.90;;;;;;5026077;28;20040;-83
2023/01/30 12:53:44;;;;;;;27.10;5.28;;;7.30;99.90;;;;;;5025626;28;20084;-84
2023/01/30 12:56:26;;;;;;;25.15;5.32;;;7.30;99.90;;;;;;5040405;28;20182;-84
2023/01/30 12:59:09;;;;;;;28.05;5.38;;;7.40;99.90;;;;;;5060170;28;20053;-83
2023/01/30 13:02:03;;;;;;;25.05;5.50;;;7.50;99.90;;;;;;5028139;28;20059;-79
2023/01/30 13:04:46;;;;;;;26.58;5.32;;;7.70;99.90;;;;;;5036379;28;20513;-83
2023/01/30 13:07:47;;;;;;;36.00;6.25;;;7.80;99.90;;;;;;5030700;28;20057;-83
2023/01/30 13:10:31;;;;;;;25.45;5.07;;;7.80;99.90;;;;;;5022876;28;20064;-83
2023/01/30 13:13:12;;;;;;;24.90;4.93;;;7.90;99.90;;;;;;5037065;28;20124;-83
2023/01/30 13:16:05;;;;;;;19.02;4.75;;;7.90;99.90;;;;;;5041905;28;20052;-83